sensor_id;sensor_type;location;lat;lon;timestamp;P1;durP1;ratioP1;P2;durP2;ratioP2
78542;SDS011;67836;52.430;14.446;2024-01-15T00:01:42;17.40;;;11.02;;
78542;SDS011;67836;52.430;14.446;2024-01-15T00:04:26;16.23;;;9.85;;
78542;SDS011;67836;52.430;14.446;2024-01-15T00:07:10;17.23;;;10.95;;
78542;SDS011;67836;52.430;14.446;2024-01-15T00:09:54;14.93;;;9.25;;
78542;SDS011;67836;52.430;14.446;2024-01-15T00:12:38;15.85;;;10.45;;
78542;SDS011;67836;52.430;14.446;2024-01-15T00:15:22;18.27;;;11.55;;
78542;SDS011;67836;52.430;14.446;2024-01-15T00:18:06;14.48;;;7.78;;
78542;SDS011;67836;52.430;14.446;2024-01-15T00:20:50;12.50;;;5.57;;
78542;SDS011;67836;52.430;14.446;2024-01-15T00:23:34;16.63;;;10.82;;
78542;SDS011;67836;52.430;14.446;2024-01-15T00:26:20;16.05;;;9.40;;
78542;SDS011;67836;52.430;14.446;2024-01-15T00:29:04;16.02;;;7.95;;
78542;SDS011;67836;52.430;14.446;2024-01-15T00:31:53;15.68;;;9.85;;
78542;SDS011;67836;52.430;14.446;2024-01-15T00:34:36;14.05;;;8.80;;
78542;SDS011;67836;52.430;14.446;2024-01-15T00:37:20;16.45;;;9.32;;
78542;SDS011;67836;52.430;14.446;2024-01-15T00:40:04;15.55;;;9.48;;
78542;SDS011;67836;52.430;14.446;2024-01-15T00:42:49;16.27;;;10.00;;
78542;SDS011;67836;52.430;14.446;2024-01-15T00:45:33;14.10;;;7.75;;
78542;SDS011;67836;52.430;14.446;2024-01-15T00:48:16;14.90;;;9.80;;
78542;SDS011;67836;52.430;14.446;2024-01-15T00:51:00;15.88;;;10.32;;
78542;SDS011;67836;52.430;14.446;2024-01-15T00:53:44;16.85;;;11.52;;
78542;SDS011;67836;52.430;14.446;2024-01-15T00:56:30;14.18;;;8.20;;
78542;SDS011;67836;52.430;14.446;2024-01-15T00:59:14;16.60;;;9.65;;
78542;SDS011;67836;52.430;14.446;2024-01-15T01:01:58;17.08;;;9.18;;
78542;SDS011;67836;52.430;14.446;2024-01-15T01:04:42;17.17;;;11.52;;
78542;SDS011;67836;52.430;14.446;2024-01-15T01:07:26;14.20;;;6.43;;
78542;SDS011;67836;52.430;14.446;2024-01-15T01:10:09;15.73;;;8.82;;
78542;SDS011;67836;52.430;14.446;2024-01-15T01:12:56;17.50;;;10.35;;
78542;SDS011;67836;52.430;14.446;2024-01-15T01:15:40;13.95;;;7.47;;
78542;SDS011;67836;52.430;14.446;2024-01-15T01:18:24;13.95;;;8.90;;
78542;SDS011;67836;52.430;14.446;2024-01-15T01:21:08;17.85;;;9.98;;
78542;SDS011;67836;52.430;14.446;2024-01-15T01:23:52;16.45;;;11.05;;
78542;SDS011;67836;52.430;14.446;2024-01-15T01:26:36;15.32;;;9.15;;
78542;SDS011;67836;52.430;14.446;2024-01-15T01:32:03;15.23;;;10.15;;
78542;SDS011;67836;52.430;14.446;2024-01-15T01:34:47;17.30;;;9.70;;
78542;SDS011;67836;52.430;14.446;2024-01-15T01:37:31;16.05;;;8.40;;
78542;SDS011;67836;52.430;14.446;2024-01-15T01:40:15;16.13;;;10.25;;
78542;SDS011;67836;52.430;14.446;2024-01-15T01:42:59;18.02;;;10.13;;
78542;SDS011;67836;52.430;14.446;2024-01-15T01:48:26;19.48;;;11.40;;
78542;SDS011;67836;52.430;14.446;2024-01-15T01:51:11;16.48;;;9.05;;
78542;SDS011;67836;52.430;14.446;2024-01-15T01:53:55;17.17;;;10.30;;
78542;SDS011;67836;52.430;14.446;2024-01-15T01:56:42;16.50;;;10.30;;
78542;SDS011;67836;52.430;14.446;2024-01-15T01:59:26;19.00;;;12.13;;
78542;SDS011;67836;52.430;14.446;2024-01-15T02:02:11;19.75;;;13.40;;
78542;SDS011;67836;52.430;14.446;2024-01-15T02:04:55;17.85;;;11.63;;
78542;SDS011;67836;52.430;14.446;2024-01-15T02:07:38;18.88;;;13.52;;
78542;SDS011;67836;52.430;14.446;2024-01-15T02:10:22;18.75;;;11.63;;
78542;SDS011;67836;52.430;14.446;2024-01-15T02:13:06;16.05;;;9.70;;
78542;SDS011;67836;52.430;14.446;2024-01-15T02:15:50;21.42;;;13.60;;
78542;SDS011;67836;52.430;14.446;2024-01-15T02:18:43;18.15;;;11.07;;
78542;SDS011;67836;52.430;14.446;2024-01-15T02:21:27;18.58;;;12.07;;
78542;SDS011;67836;52.430;14.446;2024-01-15T02:24:12;22.48;;;15.40;;
78542;SDS011;67836;52.430;14.446;2024-01-15T02:26:56;17.92;;;12.27;;
78542;SDS011;67836;52.430;14.446;2024-01-15T02:29:40;21.65;;;15.15;;
78542;SDS011;67836;52.430;14.446;2024-01-15T02:32:24;21.25;;;14.38;;
78542;SDS011;67836;52.430;14.446;2024-01-15T02:35:10;20.33;;;13.00;;
78542;SDS011;67836;52.430;14.446;2024-01-15T02:37:54;19.23;;;12.75;;
78542;SDS011;67836;52.430;14.446;2024-01-15T02:40:38;17.40;;;10.45;;
78542;SDS011;67836;52.430;14.446;2024-01-15T02:43:25;18.90;;;11.50;;
78542;SDS011;67836;52.430;14.446;2024-01-15T02:46:09;16.95;;;10.40;;
78542;SDS011;67836;52.430;14.446;2024-01-15T02:48:53;17.40;;;11.52;;
78542;SDS011;67836;52.430;14.446;2024-01-15T02:51:39;16.42;;;10.48;;
78542;SDS011;67836;52.430;14.446;2024-01-15T02:54:23;16.65;;;10.65;;
78542;SDS011;67836;52.430;14.446;2024-01-15T02:57:06;14.75;;;8.48;;
78542;SDS011;67836;52.430;14.446;2024-01-15T02:59:51;17.70;;;11.82;;
78542;SDS011;67836;52.430;14.446;2024-01-15T03:02:36;15.65;;;10.07;;
78542;SDS011;67836;52.430;14.446;2024-01-15T03:05:21;13.52;;;7.63;;
78542;SDS011;67836;52.430;14.446;2024-01-15T03:08:04;14.73;;;8.40;;
78542;SDS011;67836;52.430;14.446;2024-01-15T03:10:48;13.98;;;6.13;;
78542;SDS011;67836;52.430;14.446;2024-01-15T03:13:35;16.95;;;9.75;;
78542;SDS011;67836;52.430;14.446;2024-01-15T03:16:19;15.75;;;9.27;;
78542;SDS011;67836;52.430;14.446;2024-01-15T03:19:08;15.07;;;9.40;;
78542;SDS011;67836;52.430;14.446;2024-01-15T03:21:52;20.00;;;12.60;;
78542;SDS011;67836;52.430;14.446;2024-01-15T03:24:36;17.63;;;11.63;;
78542;SDS011;67836;52.430;14.446;2024-01-15T03:27:21;19.05;;;11.20;;
78542;SDS011;67836;52.430;14.446;2024-01-15T03:30:05;18.48;;;12.27;;
78542;SDS011;67836;52.430;14.446;2024-01-15T03:32:49;18.40;;;12.18;;
78542;SDS011;67836;52.430;14.446;2024-01-15T03:35:34;16.70;;;10.00;;
78542;SDS011;67836;52.430;14.446;2024-01-15T03:38:17;19.10;;;10.82;;
78542;SDS011;67836;52.430;14.446;2024-01-15T03:41:01;13.23;;;7.43;;
78542;SDS011;67836;52.430;14.446;2024-01-15T03:43:45;16.15;;;9.45;;
78542;SDS011;67836;52.430;14.446;2024-01-15T03:46:29;16.77;;;9.20;;
78542;SDS011;67836;52.430;14.446;2024-01-15T03:49:13;17.60;;;10.75;;
78542;SDS011;67836;52.430;14.446;2024-01-15T03:51:57;14.32;;;7.53;;
78542;SDS011;67836;52.430;14.446;2024-01-15T03:54:43;16.20;;;9.27;;
78542;SDS011;67836;52.430;14.446;2024-01-15T03:57:27;18.25;;;10.15;;
78542;SDS011;67836;52.430;14.446;2024-01-15T04:00:11;15.68;;;9.65;;
78542;SDS011;67836;52.430;14.446;2024-01-15T04:02:56;15.73;;;10.50;;
78542;SDS011;67836;52.430;14.446;2024-01-15T04:05:39;17.58;;;9.57;;
78542;SDS011;67836;52.430;14.446;2024-01-15T04:08:23;15.20;;;9.70;;
78542;SDS011;67836;52.430;14.446;2024-01-15T04:11:07;15.70;;;10.60;;
78542;SDS011;67836;52.430;14.446;2024-01-15T04:13:51;12.93;;;6.65;;
78542;SDS011;67836;52.430;14.446;2024-01-15T04:16:35;16.13;;;9.00;;
78542;SDS011;67836;52.430;14.446;2024-01-15T04:19:20;12.77;;;7.57;;
78542;SDS011;67836;52.430;14.446;2024-01-15T04:22:04;14.02;;;6.97;;
78542;SDS011;67836;52.430;14.446;2024-01-15T04:24:47;12.40;;;7.30;;
78542;SDS011;67836;52.430;14.446;2024-01-15T04:27:32;14.95;;;8.50;;
78542;SDS011;67836;52.430;14.446;2024-01-15T04:30:15;15.32;;;9.18;;
78542;SDS011;67836;52.430;14.446;2024-01-15T04:32:59;13.93;;;7.70;;
78542;SDS011;67836;52.430;14.446;2024-01-15T04:35:43;14.82;;;8.98;;
78542;SDS011;67836;52.430;14.446;2024-01-15T04:38:27;13.95;;;7.80;;
78542;SDS011;67836;52.430;14.446;2024-01-15T04:41:14;12.90;;;6.97;;
78542;SDS011;67836;52.430;14.446;2024-01-15T04:43:59;15.57;;;6.85;;
78542;SDS011;67836;52.430;14.446;2024-01-15T04:46:45;13.88;;;7.30;;
78542;SDS011;67836;52.430;14.446;2024-01-15T04:49:28;10.93;;;5.55;;
78542;SDS011;67836;52.430;14.446;2024-01-15T04:52:13;11.93;;;7.32;;
78542;SDS011;67836;52.430;14.446;2024-01-15T04:54:57;15.10;;;8.02;;
78542;SDS011;67836;52.430;14.446;2024-01-15T04:57:41;12.70;;;7.63;;
78542;SDS011;67836;52.430;14.446;2024-01-15T05:00:25;12.07;;;6.50;;
78542;SDS011;67836;52.430;14.446;2024-01-15T05:03:09;11.45;;;6.20;;
78542;SDS011;67836;52.430;14.446;2024-01-15T05:05:52;13.63;;;7.10;;
78542;SDS011;67836;52.430;14.446;2024-01-15T05:08:36;13.18;;;7.57;;
78542;SDS011;67836;52.430;14.446;2024-01-15T05:11:22;11.05;;;5.63;;
78542;SDS011;67836;52.430;14.446;2024-01-15T05:14:09;12.70;;;6.25;;
78542;SDS011;67836;52.430;14.446;2024-01-15T05:16:55;14.45;;;7.68;;
78542;SDS011;67836;52.430;14.446;2024-01-15T05:19:39;12.77;;;4.93;;
78542;SDS011;67836;52.430;14.446;2024-01-15T05:22:25;10.80;;;4.95;;
78542;SDS011;67836;52.430;14.446;2024-01-15T05:25:09;12.57;;;7.00;;
78542;SDS011;67836;52.430;14.446;2024-01-15T05:27:53;12.50;;;7.38;;
78542;SDS011;67836;52.430;14.446;2024-01-15T05:30:37;12.57;;;5.75;;
78542;SDS011;67836;52.430;14.446;2024-01-15T05:33:25;13.48;;;6.80;;
78542;SDS011;67836;52.430;14.446;2024-01-15T05:36:09;9.85;;;4.55;;
78542;SDS011;67836;52.430;14.446;2024-01-15T05:38:52;10.88;;;5.47;;
78542;SDS011;67836;52.430;14.446;2024-01-15T05:41:36;11.23;;;6.10;;
78542;SDS011;67836;52.430;14.446;2024-01-15T05:44:23;15.32;;;6.75;;
78542;SDS011;67836;52.430;14.446;2024-01-15T05:47:07;10.15;;;5.78;;
78542;SDS011;67836;52.430;14.446;2024-01-15T05:49:51;12.88;;;5.65;;
78542;SDS011;67836;52.430;14.446;2024-01-15T05:52:38;11.48;;;5.78;;
78542;SDS011;67836;52.430;14.446;2024-01-15T05:55:23;12.77;;;6.40;;
78542;SDS011;67836;52.430;14.446;2024-01-15T05:58:07;12.75;;;6.55;;
78542;SDS011;67836;52.430;14.446;2024-01-15T06:00:53;15.10;;;8.40;;
78542;SDS011;67836;52.430;14.446;2024-01-15T06:03:37;17.02;;;8.73;;
78542;SDS011;67836;52.430;14.446;2024-01-15T06:06:21;17.48;;;8.10;;
78542;SDS011;67836;52.430;14.446;2024-01-15T06:09:05;10.13;;;4.95;;
78542;SDS011;67836;52.430;14.446;2024-01-15T06:11:49;9.90;;;5.07;;
78542;SDS011;67836;52.430;14.446;2024-01-15T06:14:33;8.93;;;3.83;;
78542;SDS011;67836;52.430;14.446;2024-01-15T06:17:19;10.40;;;5.65;;
78542;SDS011;67836;52.430;14.446;2024-01-15T06:20:03;10.90;;;4.85;;
78542;SDS011;67836;52.430;14.446;2024-01-15T06:22:48;11.00;;;4.53;;
78542;SDS011;67836;52.430;14.446;2024-01-15T06:25:32;8.38;;;4.28;;
78542;SDS011;67836;52.430;14.446;2024-01-15T06:28:19;11.45;;;5.68;;
78542;SDS011;67836;52.430;14.446;2024-01-15T06:31:02;11.35;;;4.72;;
78542;SDS011;67836;52.430;14.446;2024-01-15T06:33:46;9.63;;;5.57;;
78542;SDS011;67836;52.430;14.446;2024-01-15T06:36:31;7.82;;;3.90;;
78542;SDS011;67836;52.430;14.446;2024-01-15T06:39:16;7.93;;;3.92;;
78542;SDS011;67836;52.430;14.446;2024-01-15T06:42:02;9.50;;;4.30;;
78542;SDS011;67836;52.430;14.446;2024-01-15T06:44:46;10.38;;;3.97;;
78542;SDS011;67836;52.430;14.446;2024-01-15T06:47:30;8.85;;;4.10;;
78542;SDS011;67836;52.430;14.446;2024-01-15T06:50:16;10.10;;;4.45;;
78542;SDS011;67836;52.430;14.446;2024-01-15T06:53:00;10.50;;;5.65;;
78542;SDS011;67836;52.430;14.446;2024-01-15T06:55:43;11.98;;;5.20;;
78542;SDS011;67836;52.430;14.446;2024-01-15T06:58:27;12.95;;;5.05;;
78542;SDS011;67836;52.430;14.446;2024-01-15T07:01:11;12.20;;;6.28;;
78542;SDS011;67836;52.430;14.446;2024-01-15T07:03:55;10.13;;;4.43;;
78542;SDS011;67836;52.430;14.446;2024-01-15T07:06:40;9.25;;;4.70;;
78542;SDS011;67836;52.430;14.446;2024-01-15T07:09:23;9.85;;;4.80;;
78542;SDS011;67836;52.430;14.446;2024-01-15T07:12:07;12.35;;;4.18;;
78542;SDS011;67836;52.430;14.446;2024-01-15T07:14:54;12.05;;;5.50;;
78542;SDS011;67836;52.430;14.446;2024-01-15T07:17:40;10.00;;;5.10;;
78542;SDS011;67836;52.430;14.446;2024-01-15T07:20:26;7.50;;;3.25;;
78542;SDS011;67836;52.430;14.446;2024-01-15T07:23:10;8.85;;;3.95;;
78542;SDS011;67836;52.430;14.446;2024-01-15T07:25:56;9.45;;;3.42;;
78542;SDS011;67836;52.430;14.446;2024-01-15T07:28:40;12.13;;;4.18;;
78542;SDS011;67836;52.430;14.446;2024-01-15T07:31:24;10.98;;;3.83;;
78542;SDS011;67836;52.430;14.446;2024-01-15T07:34:11;10.88;;;4.28;;
78542;SDS011;67836;52.430;14.446;2024-01-15T07:36:56;9.55;;;4.00;;
78542;SDS011;67836;52.430;14.446;2024-01-15T07:39:40;12.75;;;4.38;;
78542;SDS011;67836;52.430;14.446;2024-01-15T07:42:27;11.70;;;4.25;;
78542;SDS011;67836;52.430;14.446;2024-01-15T07:45:11;5.88;;;2.55;;
78542;SDS011;67836;52.430;14.446;2024-01-15T07:47:55;11.55;;;4.18;;
78542;SDS011;67836;52.430;14.446;2024-01-15T07:50:39;9.73;;;4.30;;
78542;SDS011;67836;52.430;14.446;2024-01-15T07:53:23;8.68;;;3.92;;
78542;SDS011;67836;52.430;14.446;2024-01-15T07:56:07;9.40;;;3.30;;
78542;SDS011;67836;52.430;14.446;2024-01-15T07:58:50;11.60;;;4.07;;
78542;SDS011;67836;52.430;14.446;2024-01-15T08:01:34;11.68;;;4.28;;
78542;SDS011;67836;52.430;14.446;2024-01-15T08:04:18;6.50;;;2.47;;
78542;SDS011;67836;52.430;14.446;2024-01-15T08:07:02;11.27;;;3.90;;
78542;SDS011;67836;52.430;14.446;2024-01-15T08:09:49;10.38;;;3.45;;
78542;SDS011;67836;52.430;14.446;2024-01-15T08:12:33;11.10;;;3.60;;
78542;SDS011;67836;52.430;14.446;2024-01-15T08:15:17;8.10;;;3.60;;
78542;SDS011;67836;52.430;14.446;2024-01-15T08:18:01;9.30;;;3.42;;
78542;SDS011;67836;52.430;14.446;2024-01-15T08:20:45;7.53;;;2.92;;
78542;SDS011;67836;52.430;14.446;2024-01-15T08:23:29;9.38;;;2.38;;
78542;SDS011;67836;52.430;14.446;2024-01-15T08:26:15;12.07;;;3.50;;
78542;SDS011;67836;52.430;14.446;2024-01-15T08:29:02;5.07;;;2.47;;
78542;SDS011;67836;52.430;14.446;2024-01-15T08:31:45;9.20;;;3.65;;
78542;SDS011;67836;52.430;14.446;2024-01-15T08:34:32;7.68;;;3.53;;
78542;SDS011;67836;52.430;14.446;2024-01-15T08:37:16;9.35;;;3.55;;
78542;SDS011;67836;52.430;14.446;2024-01-15T08:39:59;10.73;;;3.00;;
78542;SDS011;67836;52.430;14.446;2024-01-15T08:42:43;11.07;;;3.00;;
78542;SDS011;67836;52.430;14.446;2024-01-15T08:45:27;11.55;;;3.70;;
78542;SDS011;67836;52.430;14.446;2024-01-15T08:48:16;7.68;;;2.47;;
78542;SDS011;67836;52.430;14.446;2024-01-15T08:51:00;7.68;;;2.38;;
78542;SDS011;67836;52.430;14.446;2024-01-15T08:53:44;9.15;;;2.42;;
78542;SDS011;67836;52.430;14.446;2024-01-15T08:56:28;12.40;;;3.58;;
78542;SDS011;67836;52.430;14.446;2024-01-15T08:59:13;11.38;;;3.42;;
78542;SDS011;67836;52.430;14.446;2024-01-15T09:01:57;12.20;;;2.53;;
78542;SDS011;67836;52.430;14.446;2024-01-15T09:04:43;9.80;;;2.60;;
78542;SDS011;67836;52.430;14.446;2024-01-15T09:07:29;9.85;;;2.80;;
78542;SDS011;67836;52.430;14.446;2024-01-15T09:10:14;7.88;;;2.50;;
78542;SDS011;67836;52.430;14.446;2024-01-15T09:12:57;9.05;;;3.28;;
78542;SDS011;67836;52.430;14.446;2024-01-15T09:15:41;10.90;;;2.42;;
78542;SDS011;67836;52.430;14.446;2024-01-15T09:18:26;13.43;;;3.20;;
78542;SDS011;67836;52.430;14.446;2024-01-15T09:21:10;11.20;;;2.97;;
78542;SDS011;67836;52.430;14.446;2024-01-15T09:23:54;10.10;;;2.38;;
78542;SDS011;67836;52.430;14.446;2024-01-15T09:26:38;8.50;;;2.60;;
78542;SDS011;67836;52.430;14.446;2024-01-15T09:29:22;8.05;;;2.15;;
78542;SDS011;67836;52.430;14.446;2024-01-15T09:32:10;11.95;;;3.30;;
78542;SDS011;67836;52.430;14.446;2024-01-15T09:34:54;9.25;;;2.42;;
78542;SDS011;67836;52.430;14.446;2024-01-15T09:37:39;8.50;;;2.78;;
78542;SDS011;67836;52.430;14.446;2024-01-15T09:40:23;9.02;;;2.58;;
78542;SDS011;67836;52.430;14.446;2024-01-15T09:43:07;9.25;;;2.70;;
78542;SDS011;67836;52.430;14.446;2024-01-15T09:45:54;11.23;;;3.63;;
78542;SDS011;67836;52.430;14.446;2024-01-15T09:48:38;12.73;;;4.22;;
78542;SDS011;67836;52.430;14.446;2024-01-15T09:51:22;8.93;;;2.97;;
78542;SDS011;67836;52.430;14.446;2024-01-15T09:54:07;8.35;;;2.78;;
78542;SDS011;67836;52.430;14.446;2024-01-15T09:56:52;7.07;;;2.83;;
78542;SDS011;67836;52.430;14.446;2024-01-15T09:59:37;7.68;;;3.30;;
78542;SDS011;67836;52.430;14.446;2024-01-15T10:02:21;7.63;;;2.60;;
78542;SDS011;67836;52.430;14.446;2024-01-15T10:05:05;8.10;;;3.00;;
78542;SDS011;67836;52.430;14.446;2024-01-15T10:07:49;8.82;;;3.30;;
78542;SDS011;67836;52.430;14.446;2024-01-15T10:10:34;12.15;;;3.50;;
78542;SDS011;67836;52.430;14.446;2024-01-15T10:13:19;9.20;;;3.53;;
78542;SDS011;67836;52.430;14.446;2024-01-15T10:16:04;8.95;;;3.53;;
78542;SDS011;67836;52.430;14.446;2024-01-15T10:18:48;10.75;;;4.07;;
78542;SDS011;67836;52.430;14.446;2024-01-15T10:21:32;8.70;;;4.18;;
78542;SDS011;67836;52.430;14.446;2024-01-15T10:24:18;8.85;;;3.50;;
78542;SDS011;67836;52.430;14.446;2024-01-15T10:27:05;9.63;;;4.10;;
78542;SDS011;67836;52.430;14.446;2024-01-15T10:29:50;8.93;;;3.10;;
78542;SDS011;67836;52.430;14.446;2024-01-15T10:32:34;11.40;;;3.72;;
78542;SDS011;67836;52.430;14.446;2024-01-15T10:35:18;10.63;;;3.88;;
78542;SDS011;67836;52.430;14.446;2024-01-15T10:38:05;8.93;;;3.70;;
78542;SDS011;67836;52.430;14.446;2024-01-15T10:40:52;8.35;;;3.35;;
78542;SDS011;67836;52.430;14.446;2024-01-15T10:43:36;13.63;;;4.57;;
78542;SDS011;67836;52.430;14.446;2024-01-15T10:46:20;12.02;;;5.13;;
78542;SDS011;67836;52.430;14.446;2024-01-15T10:49:05;9.13;;;4.10;;
78542;SDS011;67836;52.430;14.446;2024-01-15T10:51:49;8.48;;;3.88;;
78542;SDS011;67836;52.430;14.446;2024-01-15T10:54:33;10.93;;;4.68;;
78542;SDS011;67836;52.430;14.446;2024-01-15T10:57:17;9.20;;;4.00;;
78542;SDS011;67836;52.430;14.446;2024-01-15T11:00:01;10.73;;;4.20;;
78542;SDS011;67836;52.430;14.446;2024-01-15T11:02:50;9.88;;;4.80;;
78542;SDS011;67836;52.430;14.446;2024-01-15T11:05:53;11.32;;;6.22;;
78542;SDS011;67836;52.430;14.446;2024-01-15T11:08:37;7.38;;;3.10;;
78542;SDS011;67836;52.430;14.446;2024-01-15T11:11:21;7.88;;;3.42;;
78542;SDS011;67836;52.430;14.446;2024-01-15T11:14:04;10.88;;;3.88;;
78542;SDS011;67836;52.430;14.446;2024-01-15T11:16:54;8.23;;;3.50;;
78542;SDS011;67836;52.430;14.446;2024-01-15T11:19:42;7.18;;;3.35;;
78542;SDS011;67836;52.430;14.446;2024-01-15T11:25:13;8.43;;;3.80;;
78542;SDS011;67836;52.430;14.446;2024-01-15T11:27:57;9.93;;;4.78;;
78542;SDS011;67836;52.430;14.446;2024-01-15T11:30:41;10.38;;;3.00;;
78542;SDS011;67836;52.430;14.446;2024-01-15T11:33:34;9.88;;;4.38;;
78542;SDS011;67836;52.430;14.446;2024-01-15T11:36:18;8.87;;;4.97;;
78542;SDS011;67836;52.430;14.446;2024-01-15T11:39:28;9.15;;;3.42;;
78542;SDS011;67836;52.430;14.446;2024-01-15T11:42:06;12.80;;;5.30;;
78542;SDS011;67836;52.430;14.446;2024-01-15T11:44:50;18.98;;;8.95;;
78542;SDS011;67836;52.430;14.446;2024-01-15T11:48:19;34.15;;;19.85;;
78542;SDS011;67836;52.430;14.446;2024-01-15T11:50:48;18.23;;;10.70;;
78542;SDS011;67836;52.430;14.446;2024-01-15T11:53:36;28.83;;;15.18;;
78542;SDS011;67836;52.430;14.446;2024-01-15T11:56:20;10.88;;;5.10;;
78542;SDS011;67836;52.430;14.446;2024-01-15T11:59:06;11.25;;;5.25;;
78542;SDS011;67836;52.430;14.446;2024-01-15T12:01:50;7.45;;;3.22;;
78542;SDS011;67836;52.430;14.446;2024-01-15T12:04:34;11.40;;;4.53;;
78542;SDS011;67836;52.430;14.446;2024-01-15T12:07:18;9.40;;;3.60;;
78542;SDS011;67836;52.430;14.446;2024-01-15T12:10:02;7.53;;;3.13;;
78542;SDS011;67836;52.430;14.446;2024-01-15T12:15:39;8.27;;;3.55;;
78542;SDS011;67836;52.430;14.446;2024-01-15T12:18:26;8.07;;;3.17;;
78542;SDS011;67836;52.430;14.446;2024-01-15T12:21:10;5.40;;;2.28;;
78542;SDS011;67836;52.430;14.446;2024-01-15T12:26:38;6.50;;;2.63;;
78542;SDS011;67836;52.430;14.446;2024-01-15T12:29:21;7.00;;;2.30;;
78542;SDS011;67836;52.430;14.446;2024-01-15T12:32:05;7.32;;;2.60;;
78542;SDS011;67836;52.430;14.446;2024-01-15T12:34:50;7.70;;;2.55;;
78542;SDS011;67836;52.430;14.446;2024-01-15T12:37:37;8.02;;;2.70;;
78542;SDS011;67836;52.430;14.446;2024-01-15T12:40:22;4.68;;;1.63;;
78542;SDS011;67836;52.430;14.446;2024-01-15T12:43:06;7.18;;;2.60;;
78542;SDS011;67836;52.430;14.446;2024-01-15T12:48:34;3.50;;;1.50;;
78542;SDS011;67836;52.430;14.446;2024-01-15T12:51:18;6.93;;;2.38;;
78542;SDS011;67836;52.430;14.446;2024-01-15T12:54:02;6.93;;;1.95;;
78542;SDS011;67836;52.430;14.446;2024-01-15T12:56:46;4.30;;;1.92;;
78542;SDS011;67836;52.430;14.446;2024-01-15T12:59:30;4.47;;;1.85;;
78542;SDS011;67836;52.430;14.446;2024-01-15T13:07:43;5.10;;;2.30;;
78542;SDS011;67836;52.430;14.446;2024-01-15T13:10:27;3.85;;;1.75;;
78542;SDS011;67836;52.430;14.446;2024-01-15T13:13:13;6.05;;;2.00;;
78542;SDS011;67836;52.430;14.446;2024-01-15T13:15:57;7.93;;;2.47;;
78542;SDS011;67836;52.430;14.446;2024-01-15T13:18:41;4.20;;;1.92;;
78542;SDS011;67836;52.430;14.446;2024-01-15T13:21:25;6.80;;;3.50;;
78542;SDS011;67836;52.430;14.446;2024-01-15T13:26:52;7.57;;;2.28;;
78542;SDS011;67836;52.430;14.446;2024-01-15T13:29:36;6.82;;;3.08;;
78542;SDS011;67836;52.430;14.446;2024-01-15T13:32:24;7.68;;;3.38;;
78542;SDS011;67836;52.430;14.446;2024-01-15T13:35:09;12.50;;;6.57;;
78542;SDS011;67836;52.430;14.446;2024-01-15T13:37:57;14.05;;;6.90;;
78542;SDS011;67836;52.430;14.446;2024-01-15T13:40:42;9.40;;;5.18;;
78542;SDS011;67836;52.430;14.446;2024-01-15T13:43:26;6.50;;;3.50;;
78542;SDS011;67836;52.430;14.446;2024-01-15T13:46:10;6.78;;;3.25;;
78542;SDS011;67836;52.430;14.446;2024-01-15T13:48:54;4.32;;;2.10;;
78542;SDS011;67836;52.430;14.446;2024-01-15T13:51:38;6.85;;;2.92;;
78542;SDS011;67836;52.430;14.446;2024-01-15T13:54:22;3.50;;;1.70;;
78542;SDS011;67836;52.430;14.446;2024-01-15T13:57:06;4.03;;;1.92;;
78542;SDS011;67836;52.430;14.446;2024-01-15T13:59:50;7.68;;;3.53;;
78542;SDS011;67836;52.430;14.446;2024-01-15T14:02:34;4.35;;;2.30;;
78542;SDS011;67836;52.430;14.446;2024-01-15T14:10:46;2.95;;;1.55;;
78542;SDS011;67836;52.430;14.446;2024-01-15T14:13:30;3.03;;;1.38;;
78542;SDS011;67836;52.430;14.446;2024-01-15T14:16:14;4.95;;;1.60;;
78542;SDS011;67836;52.430;14.446;2024-01-15T14:18:58;6.28;;;3.10;;
78542;SDS011;67836;52.430;14.446;2024-01-15T14:24:26;3.65;;;1.70;;
78542;SDS011;67836;52.430;14.446;2024-01-15T14:27:09;3.50;;;1.75;;
78542;SDS011;67836;52.430;14.446;2024-01-15T14:29:54;4.82;;;2.05;;
78542;SDS011;67836;52.430;14.446;2024-01-15T14:32:37;5.18;;;2.60;;
78542;SDS011;67836;52.430;14.446;2024-01-15T14:35:21;5.22;;;2.75;;
78542;SDS011;67836;52.430;14.446;2024-01-15T14:38:05;3.78;;;1.83;;
78542;SDS011;67836;52.430;14.446;2024-01-15T14:40:49;4.70;;;1.67;;
78542;SDS011;67836;52.430;14.446;2024-01-15T14:43:33;1.60;;;1.10;;
78542;SDS011;67836;52.430;14.446;2024-01-15T14:46:16;7.78;;;3.38;;
78542;SDS011;67836;52.430;14.446;2024-01-15T14:49:00;5.22;;;2.28;;
78542;SDS011;67836;52.430;14.446;2024-01-15T14:51:44;4.50;;;1.60;;
78542;SDS011;67836;52.430;14.446;2024-01-15T14:54:28;4.47;;;1.80;;
78542;SDS011;67836;52.430;14.446;2024-01-15T14:57:12;6.35;;;2.35;;
78542;SDS011;67836;52.430;14.446;2024-01-15T14:59:56;7.03;;;2.17;;
78542;SDS011;67836;52.430;14.446;2024-01-15T15:02:39;6.90;;;2.50;;
78542;SDS011;67836;52.430;14.446;2024-01-15T15:05:24;7.63;;;3.25;;
78542;SDS011;67836;52.430;14.446;2024-01-15T15:08:09;6.47;;;3.00;;
78542;SDS011;67836;52.430;14.446;2024-01-15T15:13:37;7.43;;;3.08;;
78542;SDS011;67836;52.430;14.446;2024-01-15T15:21:48;4.57;;;2.22;;
78542;SDS011;67836;52.430;14.446;2024-01-15T15:24:32;3.00;;;1.40;;
78542;SDS011;67836;52.430;14.446;2024-01-15T15:27:16;3.15;;;1.38;;
78542;SDS011;67836;52.430;14.446;2024-01-15T15:30:00;2.38;;;1.27;;
78542;SDS011;67836;52.430;14.446;2024-01-15T15:32:44;3.10;;;1.15;;
78542;SDS011;67836;52.430;14.446;2024-01-15T15:35:28;2.85;;;0.93;;
78542;SDS011;67836;52.430;14.446;2024-01-15T15:38:12;4.90;;;1.92;;
78542;SDS011;67836;52.430;14.446;2024-01-15T15:40:56;3.45;;;2.00;;
78542;SDS011;67836;52.430;14.446;2024-01-15T15:43:41;2.60;;;1.48;;
78542;SDS011;67836;52.430;14.446;2024-01-15T15:46:24;4.13;;;1.70;;
78542;SDS011;67836;52.430;14.446;2024-01-15T15:49:08;3.97;;;1.85;;
78542;SDS011;67836;52.430;14.446;2024-01-15T15:51:52;2.17;;;1.08;;
78542;SDS011;67836;52.430;14.446;2024-01-15T15:54:36;7.20;;;1.95;;
78542;SDS011;67836;52.430;14.446;2024-01-15T15:57:21;0.90;;;0.57;;
78542;SDS011;67836;52.430;14.446;2024-01-15T16:00:05;5.78;;;2.00;;
78542;SDS011;67836;52.430;14.446;2024-01-15T16:02:49;4.57;;;1.35;;
78542;SDS011;67836;52.430;14.446;2024-01-15T16:05:33;1.02;;;0.57;;
78542;SDS011;67836;52.430;14.446;2024-01-15T16:08:17;3.50;;;1.23;;
78542;SDS011;67836;52.430;14.446;2024-01-15T16:11:01;2.58;;;1.30;;
78542;SDS011;67836;52.430;14.446;2024-01-15T16:13:44;6.95;;;1.70;;
78542;SDS011;67836;52.430;14.446;2024-01-15T16:16:28;5.88;;;1.90;;
78542;SDS011;67836;52.430;14.446;2024-01-15T16:19:12;3.70;;;1.38;;
78542;SDS011;67836;52.430;14.446;2024-01-15T16:21:56;7.72;;;1.17;;
78542;SDS011;67836;52.430;14.446;2024-01-15T16:24:40;4.70;;;0.93;;
78542;SDS011;67836;52.430;14.446;2024-01-15T16:27:23;3.20;;;0.70;;
78542;SDS011;67836;52.430;14.446;2024-01-15T16:30:08;1.25;;;0.55;;
78542;SDS011;67836;52.430;14.446;2024-01-15T16:32:52;3.28;;;1.05;;
78542;SDS011;67836;52.430;14.446;2024-01-15T16:35:36;2.03;;;0.88;;
78542;SDS011;67836;52.430;14.446;2024-01-15T16:38:20;2.33;;;0.80;;
78542;SDS011;67836;52.430;14.446;2024-01-15T16:41:04;4.70;;;0.93;;
78542;SDS011;67836;52.430;14.446;2024-01-15T16:43:48;2.08;;;0.65;;
78542;SDS011;67836;52.430;14.446;2024-01-15T16:46:32;0.73;;;0.73;;
78542;SDS011;67836;52.430;14.446;2024-01-15T16:49:16;1.95;;;0.60;;